Flight Track Log - Related Links

Times and Time Zones

All times are in EDT time to prevent confusion due to time zone crossing. See the WBR2634 flight status page for this flight to view local times or setup timezone preferences in your user account.

Time Position Orientation Groundspeed Altitude Reporting Facility
EDT Latitude Longitude Course Direction KTS MPH feet Rate Location/Type
Mon 05:38:11 PM 40.8119 -91.0803 79° East 124 143 2,800  Level Chicago Center
Mon 05:39:13 PM 40.8233 -91.0458 66° East 105 121 4,100 1,113 Climbing Chicago Center
Mon 05:40:00 PM 40.8998 -90.8275 73° East  Level Estimated
Mon 05:40:15 PM 40.8361 -91.0092 65° Northeast 108 124 5,100  Level Chicago Center
Mon 05:41:00 PM 40.9079 -90.7726 79° East  Level FlightAware Approximate
Mon 05:41:17 PM 40.8472 -90.9717 69° East 109 125 6,000  Level Chicago Center
Mon 05:42:00 PM 40.9160 -90.7176 79° East  Level FlightAware Approximate
Mon 05:42:19 PM 40.8628 -90.9253 66° East 113 130 7,000  Level Chicago Center
Mon 05:43:00 PM 40.9240 -90.6626 79° East  Level FlightAware Approximate
Mon 05:43:21 PM 40.8786 -90.8858 62° Northeast 119 137 7,700  Level Chicago Center
Mon 05:44:23 PM 40.8958 -90.8456 60° Northeast 123 142 8,400 624 Climbing Chicago Center
Mon 05:45:26 PM 40.9125 -90.8036 62° Northeast 127 146 9,000 288 Climbing Chicago Center
Mon 05:46:28 PM 40.9314 -90.7531 64° Northeast 151 174 9,000  Level Chicago Center
Mon 05:47:30 PM 40.9511 -90.7000 64° Northeast 160 184 9,000  Level Chicago Center
Mon 05:48:32 PM 40.9683 -90.6353 71° East 156 180 9,000  Level Chicago Center
Mon 05:49:34 PM 40.9850 -90.5822 67° East 155 178 9,000 97 Level Chicago Center
Mon 05:50:36 PM 41.0017 -90.5275 68° East 158 182 9,200 48 Climbing Chicago Center
Mon 05:51:38 PM 41.0189 -90.4744 67° East 158 182 9,100 -48 Descending Chicago Center
Mon 05:52:40 PM 41.0353 -90.4208 68° East 157 181 9,100  Level Chicago Center
Mon 05:53:42 PM 41.0533 -90.3683 65° Northeast 158 182 9,100  Level Chicago Center
Mon 05:54:44 PM 41.0728 -90.3044 68° East 156 180 9,100 48 Level Chicago Center
Mon 05:55:47 PM 41.0922 -90.2539 63° Northeast 154 177 9,200  Climbing Chicago Center
Mon 05:56:49 PM 41.1117 -90.2022 63° Northeast 155 178 9,100 -48 Descending Chicago Center
Mon 05:57:51 PM 41.1297 -90.1486 66° East 158 182 9,100  Level Chicago Center
Mon 05:58:53 PM 41.1467 -90.0956 67° East 156 180 9,100  Level Chicago Center
Mon 05:59:55 PM 41.1644 -90.0439 65° Northeast 155 178 9,100  Level Chicago Center
Mon 06:00:57 PM 41.1872 -89.9925 59° Northeast 159 183 9,100 -97 Level Chicago Center
Mon 06:01:59 PM 41.2097 -89.9308 64° Northeast 156 180 8,900 -48 Descending Chicago Center
Mon 06:03:01 PM 41.2250 -89.8767 69° East 157 181 9,000 48 Climbing Chicago Center
Mon 06:04:03 PM 41.2369 -89.8228 74° East 153 176 9,000  Level Chicago Center
Mon 06:05:05 PM 41.2511 -89.7683 71° East 155 178 9,000 -48 Level Chicago Center
Mon 06:06:07 PM 41.2686 -89.7167 66° East 154 177 8,900 -48 Descending Chicago Center
Mon 06:07:10 PM 41.2831 -89.6622 71° East 156 180 8,900  Level Chicago Center
Mon 06:08:12 PM 41.2994 -89.5983 71° East 152 175 8,900  Level Chicago Center
Mon 06:09:14 PM 41.3164 -89.5469 66° East 152 175 8,900 48 Level Chicago Center
Mon 06:10:16 PM 41.3339 -89.4972 65° Northeast 149 171 9,000 48 Climbing Chicago Center
Mon 06:11:18 PM 41.3508 -89.4450 67° East 152 175 9,000 -194 Level Chicago Center
Mon 06:12:20 PM 41.3686 -89.3928 66° East 153 176 8,600 -339 Descending Chicago Center
Mon 06:13:22 PM 41.3858 -89.3419 66° East 153 176 8,300 -290 Descending Chicago Center
Mon 06:14:24 PM 41.4039 -89.2753 70° East 154 177 8,000 -145 Descending Chicago Center
Mon 06:15:26 PM 41.4222 -89.2219 65° Northeast 157 181 8,000 -48 Level Chicago Center
Mon 06:16:28 PM 41.4381 -89.1708 68° East 154 177 7,900 -48 Descending Chicago Center
Mon 06:17:31 PM 41.4531 -89.1200 68° East 151 174 7,900  Level Chicago Center
Mon 06:18:33 PM 41.4678 -89.0669 70° East 152 175 7,900  Level Chicago Center
Mon 06:19:35 PM 41.4864 -89.0042 68° East 151 174 7,900  Level Chicago Center
Mon 06:20:37 PM 41.5028 -88.9525 67° East 151 174 7,900  Level Chicago Center
Mon 06:21:39 PM 41.5189 -88.9011 67° East 151 174 7,900 48 Level Chicago Center
Mon 06:22:41 PM 41.5353 -88.8503 67° East 150 173 8,000 48 Climbing Chicago Center
Mon 06:23:43 PM 41.5536 -88.8000 64° Northeast 150 173 8,000 48 Level Chicago Center
Mon 06:24:45 PM 41.5658 -88.7469 73° East 150 173 8,100  Climbing Chicago Center
Mon 06:25:47 PM 41.5836 -88.6831 70° East 152 175 8,000 -48 Descending Chicago Center
Mon 06:26:50 PM 41.5950 -88.6286 74° East 153 176 8,000  Level Chicago Center
Mon 06:27:52 PM 41.6161 -88.5831 58° Northeast 148 170 8,000  Level Chicago Center
Mon 06:28:54 PM 41.6397 -88.5350 57° Northeast 152 175 8,000 -48 Level Chicago Center
Mon 06:29:56 PM 41.6647 -88.4875 55° Northeast 155 178 7,900 -242 Descending Chicago Center
Mon 06:30:58 PM 41.6961 -88.4322 53° Northeast 156 180 7,500 -387 Descending Chicago Center
Mon 06:32:00 PM 41.7219 -88.3833 55° Northeast 159 183 7,100 -242 Descending Chicago Center
Mon 06:33:02 PM 41.7336 -88.3264 75° East 160 184 7,000 -48 Descending Chicago Center
Mon 06:34:04 PM 41.7450 -88.2736 74° East 151 174 7,000 -97 Level Chicago Center
Mon 06:35:06 PM 41.7594 -88.2203 70° East 152 175 6,800 -339 Descending Chicago Center
Mon 06:36:08 PM 41.7728 -88.1631 73° East 157 181 6,300 -960 Descending Chicago Center
Mon 06:37:11 PM 41.7917 -88.0894 71° East 167 192 4,800 -1,296 Descending Chicago Center
Mon 06:38:13 PM 41.8247 -88.0439 46° Northeast 171 197 3,600 -968 Descending Chicago Center
Mon 06:39:15 PM 41.8597 -88.0083 37° Northeast 166 191 2,800 -588 Descending Chicago Center
Mon 06:39:55 PM 41.8833 -87.9833 38° Northeast 148 170 2,600 -736 Descending Chicago TRACON
Mon 06:41:01 PM 41.9167 -87.9333 48° Northeast 151 174 1,500 -810 Descending Chicago TRACON
Mon 06:42:01 PM 41.9500 -87.9000 37° Northeast 126 145 900 -600 Descending Chicago TRACON
Mon 06:44:00 PM 41.9667 -87.9000 323° Northwest  Level FlightAware Approximate

Login

Don't have an account? Register now (free) for customized features, flight alerts, and more!